Time;durP1;ratioP1;P1;durP2;ratioP2;P2;SDS_P1;SDS_P2;PMS_P1;PMS_P2;Temp;Humidity;BMP_temperature;BMP_pressure;BME280_temperature;BME280_humidity;BME280_pressure;Samples;Min_cycle;Max_cycle;Signal;HPM_P1;HPM_P2
2022/04/11 00:00:10;;;;;;;19.37;10.03;;;7.10;99.90;;;;;;5098519;27;20215;-61
2022/04/11 00:02:38;;;;;;;16.00;9.47;;;7.00;99.90;;;;;;5101940;28;20187;-60
2022/04/11 00:05:07;;;;;;;13.67;9.60;;;7.00;99.90;;;;;;5102578;28;20199;-61
2022/04/11 00:07:36;;;;;;;17.70;9.70;;;7.00;99.90;;;;;;5101176;28;20269;-61
2022/04/11 00:10:05;;;;;;;13.07;9.37;;;6.90;99.90;;;;;;5104258;28;20278;-61
2022/04/11 00:12:36;;;;;;;15.43;9.47;;;7.00;99.90;;;;;;5101001;28;20199;-61
2022/04/11 00:15:07;;;;;;;15.70;9.00;;;7.00;99.90;;;;;;5098179;28;20197;-60
2022/04/11 00:17:36;;;;;;;12.73;8.33;;;7.00;99.90;;;;;;5100068;27;20290;-61
2022/04/11 00:20:05;;;;;;;13.07;9.03;;;7.00;99.90;;;;;;5101736;27;20214;-61
2022/04/11 00:22:35;;;;;;;12.00;8.70;;;7.00;99.90;;;;;;5103880;28;20202;-61
2022/04/11 00:25:04;;;;;;;14.40;8.53;;;7.00;99.90;;;;;;5118664;27;20198;-60
2022/04/11 00:27:33;;;;;;;16.20;9.00;;;7.10;99.90;;;;;;5106334;27;20191;-61
2022/04/11 00:30:02;;;;;;;12.97;8.83;;;7.00;99.90;;;;;;5100366;27;20231;-60
2022/04/11 00:32:31;;;;;;;14.43;8.77;;;7.00;99.90;;;;;;5115438;27;20198;-60
2022/04/11 00:35:00;;;;;;;17.73;9.07;;;6.90;99.90;;;;;;5105225;28;20197;-60
2022/04/11 00:37:28;;;;;;;13.30;8.37;;;6.90;99.90;;;;;;5100164;28;20198;-62
2022/04/11 00:39:57;;;;;;;13.50;8.87;;;6.90;99.90;;;;;;5110597;27;21826;-62
2022/04/11 00:42:28;;;;;;;11.10;8.13;;;6.90;99.90;;;;;;5101852;27;20203;-60
2022/04/11 00:44:59;;;;;;;11.23;8.37;;;6.80;99.90;;;;;;5105082;27;20699;-60
2022/04/11 00:47:28;;;;;;;15.30;8.77;;;6.70;99.90;;;;;;5103326;28;20277;-60
2022/04/11 00:50:00;;;;;;;12.57;8.17;;;6.70;99.90;;;;;;5103340;28;20563;-60
2022/04/11 00:52:31;;;;;;;14.13;8.23;;;6.50;99.90;;;;;;5104516;27;20206;-60
2022/04/11 00:54:59;;;;;;;13.10;8.70;;;6.50;99.90;;;;;;5106201;27;20200;-60
2022/04/11 00:57:28;;;;;;;13.67;8.20;;;6.40;99.90;;;;;;5104871;27;20201;-61
2022/04/11 00:59:59;;;;;;;13.97;8.17;;;6.30;99.90;;;;;;5105815;28;20278;-61
2022/04/11 01:02:28;;;;;;;15.00;8.00;;;6.20;99.90;;;;;;5099526;28;20522;-61
2022/04/11 01:04:56;;;;;;;13.00;8.57;;;6.10;99.90;;;;;;5110624;27;20682;-61
2022/04/11 01:07:25;;;;;;;11.57;7.97;;;6.10;99.90;;;;;;5092853;28;20251;-61
2022/04/11 01:09:54;;;;;;;10.10;7.70;;;6.00;99.90;;;;;;5101770;28;20210;-61
2022/04/11 01:12:23;;;;;;;13.20;7.90;;;5.90;99.90;;;;;;5088819;28;20203;-61
2022/04/11 01:14:51;;;;;;;11.50;8.27;;;5.90;99.90;;;;;;5102513;28;20206;-61
2022/04/11 01:17:31;;;;;;;15.63;8.60;;;5.80;99.90;;;;;;5099191;27;20220;-61
2022/04/11 01:20:00;;;;;;;11.90;8.37;;;5.70;99.90;;;;;;5104535;28;20202;-61
2022/04/11 01:22:29;;;;;;;11.83;8.00;;;5.50;99.90;;;;;;5099883;28;20202;-63
2022/04/11 01:24:57;;;;;;;13.93;8.43;;;5.40;99.90;;;;;;5104788;28;20202;-63
2022/04/11 01:27:26;;;;;;;13.87;8.87;;;5.40;99.90;;;;;;5101048;28;20297;-62
2022/04/11 01:29:54;;;;;;;12.90;8.53;;;5.30;99.90;;;;;;5104033;28;20230;-62
2022/04/11 01:32:23;;;;;;;19.10;9.80;;;5.20;99.90;;;;;;5100298;27;20222;-62
2022/04/11 01:34:51;;;;;;;19.07;10.50;;;5.20;99.90;;;;;;5102465;28;20440;-61
2022/04/11 01:37:20;;;;;;;21.37;10.40;;;5.10;99.90;;;;;;5099904;28;20290;-61
2022/04/11 01:39:50;;;;;;;16.27;10.60;;;5.10;99.90;;;;;;5102906;28;20296;-62
2022/04/11 01:42:18;;;;;;;21.40;11.57;;;5.00;99.90;;;;;;5100565;28;20214;-62
2022/04/11 01:44:46;;;;;;;21.70;11.50;;;4.90;99.90;;;;;;5103048;28;20260;-62
2022/04/11 01:47:15;;;;;;;26.33;13.47;;;4.90;99.90;;;;;;5099787;27;20248;-62
2022/04/11 01:49:45;;;;;;;21.23;11.80;;;4.80;99.90;;;;;;5102983;27;20222;-62
2022/04/11 01:52:13;;;;;;;22.23;11.03;;;4.80;99.90;;;;;;5091787;27;20263;-62
2022/04/11 01:54:41;;;;;;;17.27;10.17;;;4.80;99.90;;;;;;5104389;27;20616;-61
2022/04/11 01:57:31;;;;;;;18.97;9.77;;;4.80;99.90;;;;;;5100349;28;20666;-62
2022/04/11 02:00:00;;;;;;;17.97;10.30;;;4.80;99.90;;;;;;5096061;27;20283;-62
2022/04/11 02:02:29;;;;;;;16.97;10.50;;;4.80;99.90;;;;;;5097460;28;20689;-61
2022/04/11 02:04:58;;;;;;;17.17;9.77;;;4.70;99.90;;;;;;5104141;27;20217;-62
2022/04/11 02:07:27;;;;;;;20.00;10.50;;;4.70;99.90;;;;;;5096763;28;20194;-60
2022/04/11 02:09:55;;;;;;;20.90;10.07;;;4.60;99.90;;;;;;5099118;28;20191;-60
2022/04/11 02:12:24;;;;;;;16.70;10.53;;;4.60;99.90;;;;;;5100019;28;20476;-60
2022/04/11 02:14:54;;;;;;;14.30;9.57;;;4.50;99.90;;;;;;5103144;28;20226;-61
2022/04/11 02:17:23;;;;;;;17.93;9.83;;;4.40;99.90;;;;;;5098737;28;20289;-61
2022/04/11 02:19:51;;;;;;;19.73;10.13;;;4.40;99.90;;;;;;5099630;28;20222;-61
2022/04/11 02:22:20;;;;;;;19.63;9.93;;;4.40;99.90;;;;;;5103211;28;20234;-60
2022/04/11 02:24:48;;;;;;;18.57;10.60;;;4.30;99.90;;;;;;5103504;28;20597;-61
2022/04/11 02:27:17;;;;;;;17.00;10.57;;;4.30;99.90;;;;;;5101646;28;20405;-61
2022/04/11 02:29:45;;;;;;;15.33;9.87;;;4.20;99.90;;;;;;5093960;28;20272;-62
2022/04/11 02:32:15;;;;;;;14.83;9.47;;;4.20;99.90;;;;;;5099205;27;20199;-61
2022/04/11 02:34:43;;;;;;;15.33;9.07;;;4.20;99.90;;;;;;5102494;28;20187;-61
2022/04/11 02:37:12;;;;;;;12.23;9.17;;;4.30;99.90;;;;;;5096903;28;20199;-61
2022/04/11 02:39:40;;;;;;;14.17;8.50;;;4.30;99.90;;;;;;5099776;27;20186;-61
2022/04/11 02:42:09;;;;;;;13.13;8.87;;;4.30;99.90;;;;;;5103117;28;20218;-61
2022/04/11 02:44:37;;;;;;;12.80;8.47;;;4.20;99.90;;;;;;5102703;28;20183;-61
2022/04/11 02:47:06;;;;;;;12.53;8.90;;;4.20;99.90;;;;;;5098329;27;20432;-61
2022/04/11 02:49:36;;;;;;;14.27;8.57;;;4.10;99.90;;;;;;5102945;28;20281;-61
2022/04/11 02:52:05;;;;;;;10.97;8.53;;;4.10;99.90;;;;;;5101320;28;20251;-61
2022/04/11 02:54:33;;;;;;;14.47;8.27;;;4.10;99.90;;;;;;5101752;27;20217;-61
2022/04/11 02:57:02;;;;;;;17.80;9.27;;;4.00;99.90;;;;;;5093550;28;20267;-61
2022/04/11 02:59:32;;;;;;;14.60;8.83;;;3.90;99.90;;;;;;5102302;28;20263;-61
2022/04/11 03:02:00;;;;;;;12.27;8.07;;;3.90;99.90;;;;;;5099696;28;20532;-62
2022/04/11 03:04:30;;;;;;;11.67;8.27;;;3.90;99.90;;;;;;5098739;28;20206;-61
2022/04/11 03:06:59;;;;;;;14.17;8.83;;;3.90;99.90;;;;;;5094910;28;20187;-62
2022/04/11 03:09:28;;;;;;;13.20;8.43;;;3.80;99.90;;;;;;5099197;28;20194;-62
2022/04/11 03:11:57;;;;;;;12.37;8.40;;;3.80;99.90;;;;;;5096411;28;20210;-61
2022/04/11 03:14:25;;;;;;;11.53;7.70;;;3.80;99.90;;;;;;5099976;28;20497;-61
2022/04/11 03:16:53;;;;;;;20.00;8.77;;;3.70;99.90;;;;;;5096660;28;20205;-61
2022/04/11 03:19:22;;;;;;;14.30;8.50;;;3.70;99.90;;;;;;5097097;28;20269;-62
2022/04/11 03:21:50;;;;;;;10.10;7.97;;;3.60;99.90;;;;;;5093802;28;20218;-61
2022/04/11 03:24:20;;;;;;;11.60;8.30;;;3.60;99.90;;;;;;5098981;28;20195;-61
2022/04/11 03:26:49;;;;;;;17.57;8.70;;;3.50;99.90;;;;;;5102170;28;20210;-62
2022/04/11 03:29:17;;;;;;;12.20;8.57;;;3.50;99.90;;;;;;5100960;28;20231;-61
2022/04/11 03:31:48;;;;;;;10.63;7.70;;;3.40;99.90;;;;;;5099680;27;20281;-61
2022/04/11 03:34:16;;;;;;;11.80;7.87;;;3.30;99.90;;;;;;5100452;27;20199;-62
2022/04/11 03:36:45;;;;;;;11.70;8.43;;;3.30;99.90;;;;;;5104100;28;20187;-61
2022/04/11 03:39:13;;;;;;;15.90;8.67;;;3.20;99.90;;;;;;5076798;28;20191;-61
2022/04/11 03:41:43;;;;;;;11.93;7.83;;;3.20;99.90;;;;;;5104953;28;20213;-60
2022/04/11 03:44:11;;;;;;;12.87;8.60;;;3.20;99.90;;;;;;5096839;27;20222;-61
2022/04/11 03:46:40;;;;;;;12.40;8.37;;;3.10;99.90;;;;;;5105760;27;20280;-61
2022/04/11 03:49:09;;;;;;;15.97;9.00;;;3.10;99.90;;;;;;5104461;28;20198;-61
2022/04/11 03:51:37;;;;;;;10.83;8.40;;;3.00;99.90;;;;;;5104889;28;20531;-60
2022/04/11 03:54:05;;;;;;;10.40;8.73;;;3.00;99.90;;;;;;5104843;28;20279;-60
2022/04/11 03:56:35;;;;;;;12.57;8.80;;;3.00;99.90;;;;;;5102548;27;20638;-60
2022/04/11 03:59:04;;;;;;;13.17;8.30;;;2.90;99.90;;;;;;5102385;27;20248;-60
2022/04/11 04:01:33;;;;;;;12.90;8.00;;;2.90;99.90;;;;;;5101550;28;20298;-61
2022/04/11 04:04:02;;;;;;;11.93;8.60;;;2.90;99.90;;;;;;5087522;28;20341;-60
2022/04/11 04:06:30;;;;;;;13.40;9.17;;;2.80;99.90;;;;;;5103402;28;20629;-60
2022/04/11 04:08:59;;;;;;;12.60;8.70;;;2.80;99.90;;;;;;5102784;27;20792;-60
2022/04/11 04:11:27;;;;;;;13.00;8.03;;;2.80;99.90;;;;;;5103653;28;20202;-61
2022/04/11 04:13:55;;;;;;;11.67;8.37;;;2.70;99.90;;;;;;5098647;28;20432;-61
2022/04/11 04:16:25;;;;;;;18.30;9.00;;;2.70;99.90;;;;;;5100720;28;20223;-61
2022/04/11 04:18:54;;;;;;;15.87;9.13;;;2.70;99.90;;;;;;5103993;28;20195;-61
2022/04/11 04:21:23;;;;;;;11.93;8.80;;;2.60;99.90;;;;;;5088020;28;20240;-61
2022/04/11 04:23:51;;;;;;;11.10;7.90;;;2.60;99.90;;;;;;5104006;27;20467;-61
2022/04/11 04:26:20;;;;;;;14.90;8.90;;;2.60;99.90;;;;;;5102907;28;20194;-61
2022/04/11 04:28:48;;;;;;;11.00;8.60;;;2.60;99.90;;;;;;5100591;28;20238;-61
2022/04/11 04:31:16;;;;;;;12.87;8.23;;;2.60;99.90;;;;;;5097207;28;20194;-61
2022/04/11 04:33:46;;;;;;;18.00;10.57;;;2.60;99.90;;;;;;5103333;27;20216;-61
2022/04/11 04:36:15;;;;;;;14.43;10.30;;;2.60;99.90;;;;;;5101849;28;20257;-60
2022/04/11 04:38:43;;;;;;;19.20;9.93;;;2.80;99.90;;;;;;5102828;28;20229;-60
2022/04/11 04:41:12;;;;;;;14.40;10.30;;;2.90;99.90;;;;;;5102552;27;20206;-61
2022/04/11 04:43:40;;;;;;;12.33;9.27;;;3.00;99.90;;;;;;5103223;27;20230;-60
2022/04/11 04:46:08;;;;;;;18.73;9.50;;;2.90;99.90;;;;;;5103348;28;20190;-60
2022/04/11 04:48:37;;;;;;;19.27;9.77;;;2.80;99.90;;;;;;5104743;27;20654;-61
2022/04/11 04:51:08;;;;;;;13.37;9.13;;;2.70;99.90;;;;;;5101884;28;20220;-60
2022/04/11 04:53:37;;;;;;;17.97;9.23;;;2.60;99.90;;;;;;5104681;27;20277;-61
2022/04/11 04:56:06;;;;;;;17.60;9.17;;;2.50;99.90;;;;;;5095925;28;20226;-60
2022/04/11 04:58:34;;;;;;;16.47;9.83;;;2.50;99.90;;;;;;5100980;27;20285;-61
2022/04/11 05:01:03;;;;;;;15.27;10.00;;;2.50;99.90;;;;;;5103593;28;20569;-61
2022/04/11 05:03:32;;;;;;;20.33;9.80;;;2.50;99.90;;;;;;5101738;27;21610;-61
2022/04/11 05:06:00;;;;;;;14.63;8.53;;;2.50;99.90;;;;;;5103889;27;20211;-60
2022/04/11 05:08:30;;;;;;;16.73;9.13;;;2.50;99.90;;;;;;5101018;27;20252;-60
2022/04/11 05:10:58;;;;;;;20.73;8.90;;;2.50;99.90;;;;;;5103363;27;20214;-60
2022/04/11 05:13:27;;;;;;;12.87;8.60;;;2.50;99.90;;;;;;5097962;27;20201;-61
2022/04/11 05:15:56;;;;;;;16.83;9.93;;;2.50;99.90;;;;;;5101715;27;20190;-61
2022/04/11 05:18:25;;;;;;;12.37;9.33;;;2.60;99.90;;;;;;5101857;28;20626;-61
2022/04/11 05:20:53;;;;;;;16.30;10.37;;;2.60;99.90;;;;;;5101438;28;20222;-61
2022/04/11 05:23:22;;;;;;;15.03;8.97;;;2.70;99.90;;;;;;5103922;28;20221;-61
2022/04/11 05:25:51;;;;;;;13.93;9.17;;;2.70;99.90;;;;;;5100453;28;20673;-61
2022/04/11 05:28:20;;;;;;;13.20;9.73;;;2.80;99.90;;;;;;5102616;28;20299;-61
2022/04/11 05:30:48;;;;;;;19.43;10.50;;;2.90;99.90;;;;;;5102506;27;20621;-61
2022/04/11 05:33:17;;;;;;;19.27;10.93;;;3.00;99.90;;;;;;5094160;28;20597;-61
2022/04/11 05:35:45;;;;;;;24.33;11.10;;;3.00;99.90;;;;;;5108156;27;20515;-61
2022/04/11 05:38:14;;;;;;;18.90;11.17;;;3.20;99.90;;;;;;5093464;28;20291;-61
2022/04/11 05:40:42;;;;;;;26.77;12.47;;;3.40;99.90;;;;;;5105763;27;20199;-61
2022/04/11 05:43:14;;;;;;;20.10;11.87;;;3.60;99.90;;;;;;5100455;28;20229;-61
2022/04/11 05:45:43;;;;;;;15.67;10.40;;;3.90;99.90;;;;;;5106005;27;20198;-61
2022/04/11 05:48:11;;;;;;;16.83;11.23;;;4.10;99.90;;;;;;5102151;28;20249;-62
2022/04/11 05:50:40;;;;;;;21.23;10.87;;;4.20;99.90;;;;;;5110166;27;20661;-61
2022/04/11 05:53:08;;;;;;;18.53;10.63;;;4.40;99.90;;;;;;5096764;28;20668;-61
2022/04/11 05:55:37;;;;;;;18.60;10.43;;;4.50;99.90;;;;;;5102162;28;20554;-62
2022/04/11 05:58:05;;;;;;;11.73;9.33;;;4.70;99.90;;;;;;5098764;28;20539;-61
2022/04/11 06:00:35;;;;;;;13.53;8.97;;;4.90;99.90;;;;;;5102156;27;20570;-62
2022/04/11 06:03:03;;;;;;;11.13;8.87;;;5.20;99.90;;;;;;5095939;28;20203;-62
2022/04/11 06:05:32;;;;;;;15.47;9.00;;;5.30;99.90;;;;;;5103200;28;21892;-62
2022/04/11 06:08:00;;;;;;;14.90;9.30;;;5.50;99.90;;;;;;5097476;27;20701;-62
2022/04/11 06:10:29;;;;;;;15.97;9.87;;;5.60;99.90;;;;;;5099095;27;20209;-62
2022/04/11 06:12:57;;;;;;;17.03;10.27;;;5.80;99.90;;;;;;5093422;28;20215;-62
2022/04/11 06:15:26;;;;;;;17.47;10.30;;;5.90;99.90;;;;;;5094892;27;20720;-62
2022/04/11 06:17:56;;;;;;;18.50;10.07;;;6.20;99.90;;;;;;5093986;27;20700;-62
2022/04/11 06:20:24;;;;;;;13.30;8.87;;;6.50;99.90;;;;;;5103613;27;20721;-62
2022/04/11 06:22:53;;;;;;;11.27;8.83;;;6.90;99.90;;;;;;5096498;28;20653;-62
2022/04/11 06:25:21;;;;;;;16.07;8.43;;;7.30;99.90;;;;;;5110925;27;20597;-62
2022/04/11 06:27:52;;;;;;;8.40;6.77;;;7.60;99.90;;;;;;5096672;27;20625;-62
2022/04/11 06:30:20;;;;;;;12.60;7.73;;;7.90;99.90;;;;;;5104012;27;20704;-62
2022/04/11 06:32:48;;;;;;;11.63;7.73;;;8.20;99.90;;;;;;5099968;27;20252;-62
2022/04/11 06:35:18;;;;;;;7.47;5.50;;;8.50;99.90;;;;;;5096577;27;20194;-62
2022/04/11 06:37:47;;;;;;;7.80;4.93;;;8.90;99.90;;;;;;5097182;28;20630;-62
2022/04/11 06:40:15;;;;;;;6.20;3.70;;;9.40;99.90;;;;;;5092200;28;20314;-61
2022/04/11 06:42:44;;;;;;;5.80;3.83;;;9.70;99.90;;;;;;5094115;27;20740;-61
2022/04/11 06:45:14;;;;;;;3.73;3.30;;;9.60;99.90;;;;;;5097573;28;20726;-61
2022/04/11 06:47:44;;;;;;;7.17;3.60;;;9.70;99.90;;;;;;5076632;27;20611;-60
2022/04/11 06:50:13;;;;;;;5.73;3.47;;;9.90;99.90;;;;;;5095640;28;20752;-61
2022/04/11 06:52:43;;;;;;;5.97;3.50;;;10.10;99.90;;;;;;5097779;28;20202;-62
2022/04/11 06:55:11;;;;;;;4.00;3.23;;;10.30;99.90;;;;;;5095359;28;20639;-61
2022/04/11 06:57:39;;;;;;;4.07;3.37;;;10.40;99.90;;;;;;5098251;28;20663;-61
2022/04/11 07:00:09;;;;;;;6.27;4.10;;;10.60;99.90;;;;;;5092977;28;20557;-61
2022/04/11 07:02:37;;;;;;;7.13;3.73;;;10.80;99.90;;;;;;5094022;28;20719;-61
2022/04/11 07:05:09;;;;;;;6.63;3.83;;;10.70;99.90;;;;;;5096707;28;20302;-61
2022/04/11 07:07:39;;;;;;;3.60;3.30;;;10.80;99.90;;;;;;5093484;28;20230;-61
2022/04/11 07:10:10;;;;;;;8.17;4.20;;;10.90;99.90;;;;;;5102231;27;20194;-61
2022/04/11 07:12:39;;;;;;;6.57;4.23;;;11.00;99.90;;;;;;5094979;28;20206;-61
2022/04/11 07:15:09;;;;;;;6.50;4.03;;;11.20;99.90;;;;;;5075433;28;20282;-61
2022/04/11 07:17:37;;;;;;;4.37;3.27;;;11.50;99.90;;;;;;5082544;28;20199;-61
2022/04/11 07:20:07;;;;;;;7.30;3.83;;;11.40;99.90;;;;;;5097586;28;20829;-61
2022/04/11 07:22:36;;;;;;;4.10;3.70;;;11.50;99.90;;;;;;5097837;28;20251;-61
2022/04/11 07:25:05;;;;;;;5.70;3.77;;;11.90;99.90;;;;;;5101656;28;20206;-61
2022/04/11 07:27:35;;;;;;;5.37;3.50;;;12.20;99.90;;;;;;5101203;28;20207;-61
2022/04/11 07:30:04;;;;;;;3.90;3.60;;;12.50;99.90;;;;;;5094678;28;20246;-61
2022/04/11 07:32:32;;;;;;;3.73;3.27;;;12.50;99.90;;;;;;5098799;28;20792;-61
2022/04/11 07:35:01;;;;;;;4.80;3.50;;;12.70;99.90;;;;;;5096096;28;20198;-61
2022/04/11 07:37:32;;;;;;;3.40;3.10;;;12.80;99.90;;;;;;5092352;28;20209;-61
2022/04/11 07:40:00;;;;;;;6.40;3.70;;;12.80;99.90;;;;;;5097373;28;20203;-61
2022/04/11 07:42:31;;;;;;;3.30;3.00;;;12.80;99.90;;;;;;5089477;27;20203;-61
2022/04/11 07:45:01;;;;;;;4.60;3.50;;;13.10;99.90;;;;;;5094208;28;20292;-61
2022/04/11 07:47:30;;;;;;;4.07;3.33;;;12.90;99.90;;;;;;5093565;28;20285;-61
2022/04/11 07:50:07;;;;;;;5.23;3.07;;;13.30;99.90;;;;;;5090966;28;20214;-61
2022/04/11 07:52:38;;;;;;;3.37;3.00;;;13.40;99.90;;;;;;5101873;28;20274;-61
2022/04/11 07:55:07;;;;;;;5.87;3.27;;;13.80;99.90;;;;;;5104396;28;20191;-61
2022/04/11 07:57:36;;;;;;;3.93;2.87;;;14.10;99.90;;;;;;5103602;28;20199;-61
2022/04/11 08:00:24;;;;;;;7.00;3.30;;;13.90;99.90;;;;;;5097015;28;20197;-61
2022/04/11 08:02:53;;;;;;;3.20;2.90;;;13.70;99.90;;;;;;5104535;28;20668;-61
2022/04/11 08:05:23;;;;;;;3.23;3.00;;;13.50;99.90;;;;;;5090684;28;20314;-61
2022/04/11 08:07:52;;;;;;;6.63;2.97;;;13.70;99.90;;;;;;5085435;28;20279;-60
2022/04/11 08:10:22;;;;;;;3.27;3.00;;;13.80;99.90;;;;;;5098216;28;20202;-61
2022/04/11 08:12:52;;;;;;;3.30;3.00;;;14.20;99.90;;;;;;5106510;28;20199;-61
2022/04/11 08:15:23;;;;;;;4.50;3.00;;;14.80;99.90;;;;;;5100873;28;20277;-61
2022/04/11 08:17:53;;;;;;;4.87;3.03;;;15.30;99.90;;;;;;5103311;27;20195;-61
2022/04/11 08:20:22;;;;;;;8.53;2.90;;;15.80;99.90;;;;;;5105195;28;20233;-61
2022/04/11 08:22:51;;;;;;;4.20;2.83;;;15.90;99.90;;;;;;5106717;27;20508;-61
2022/04/11 08:25:19;;;;;;;6.63;2.80;;;16.10;99.90;;;;;;5108012;27;20245;-61
2022/04/11 08:27:47;;;;;;;5.17;3.13;;;16.20;99.90;;;;;;5107808;27;20205;-61
2022/04/11 08:30:16;;;;;;;7.10;4.77;;;16.30;99.90;;;;;;5102213;27;20242;-61
2022/04/11 08:32:48;;;;;;;4.37;3.30;;;16.40;99.90;;;;;;5098245;28;20226;-61
2022/04/11 08:35:19;;;;;;;4.73;3.20;;;16.10;99.90;;;;;;5101571;27;20203;-62
2022/04/11 08:37:48;;;;;;;4.30;3.27;;;16.40;99.90;;;;;;5075094;28;20203;-59
2022/04/11 08:40:19;;;;;;;3.00;2.80;;;16.50;99.90;;;;;;5066474;28;20725;-61
2022/04/11 08:42:50;;;;;;;6.87;3.13;;;16.40;99.90;;;;;;5096769;28;20245;-61
2022/04/11 08:45:20;;;;;;;5.97;3.60;;;16.60;99.50;;;;;;5105890;27;20216;-61
2022/04/11 08:47:53;;;;;;;9.97;4.83;;;16.70;99.90;;;;;;5100253;27;20692;-61
2022/04/11 08:50:22;;;;;;;5.97;3.40;;;17.20;99.70;;;;;;5098357;28;20218;-61
2022/04/11 08:52:54;;;;;;;3.10;2.67;;;17.80;98.30;;;;;;5105621;27;20195;-60
2022/04/11 08:55:22;;;;;;;6.10;2.90;;;17.80;98.20;;;;;;5096645;27;20253;-60
2022/04/11 08:57:59;;;;;;;3.10;2.70;;;17.40;98.50;;;;;;5101791;27;20719;-61
2022/04/11 09:00:30;;;;;;;4.53;2.87;;;17.50;98.40;;;;;;5105490;27;20203;-60
2022/04/11 09:03:00;;;;;;;3.97;2.87;;;17.90;98.30;;;;;;5099359;27;20203;-60
2022/04/11 09:05:29;;;;;;;3.03;2.53;;;17.90;97.60;;;;;;5105410;27;20224;-60
2022/04/11 09:07:59;;;;;;;2.53;2.33;;;17.30;97.40;;;;;;5098008;27;20230;-60
2022/04/11 09:10:32;;;;;;;3.97;2.70;;;17.40;97.60;;;;;;5105342;27;20339;-60
2022/04/11 09:13:03;;;;;;;5.57;2.63;;;17.10;97.90;;;;;;5104648;27;20187;-61
2022/04/11 09:15:39;;;;;;;5.03;2.90;;;17.30;97.50;;;;;;5105674;27;20191;-61
2022/04/11 09:18:09;;;;;;;3.30;3.10;;;17.20;98.00;;;;;;5098751;28;20200;-61
2022/04/11 09:20:42;;;;;;;5.00;3.70;;;17.50;97.40;;;;;;5109433;27;20290;-61
2022/04/11 09:23:18;;;;;;;6.37;4.33;;;17.80;97.10;;;;;;5102483;27;20213;-61
2022/04/11 09:25:47;;;;;;;4.53;4.13;;;17.50;96.50;;;;;;5109744;27;20213;-61
2022/04/11 09:28:16;;;;;;;7.40;4.20;;;17.20;96.60;;;;;;5105235;27;20736;-61
2022/04/11 09:30:49;;;;;;;4.63;4.00;;;17.50;96.50;;;;;;5102227;27;20296;-62
2022/04/11 09:33:19;;;;;;;3.10;2.90;;;17.90;96.80;;;;;;5100645;27;20203;-61
2022/04/11 09:35:48;;;;;;;3.00;2.40;;;18.50;96.50;;;;;;5099334;28;20197;-62
2022/04/11 09:38:18;;;;;;;2.73;2.53;;;19.00;94.50;;;;;;5107568;27;20289;-62
2022/04/11 09:40:49;;;;;;;4.50;2.70;;;18.60;94.30;;;;;;5104140;28;20445;-61
2022/04/11 09:43:18;;;;;;;2.87;2.57;;;18.30;94.80;;;;;;5108411;27;20204;-61
2022/04/11 09:45:51;;;;;;;2.70;2.50;;;18.20;94.80;;;;;;5103489;27;20238;-61
2022/04/11 09:48:22;;;;;;;5.10;2.60;;;18.00;93.80;;;;;;5104489;27;20289;-61
2022/04/11 09:50:51;;;;;;;2.83;2.63;;;18.10;95.10;;;;;;5094318;27;20285;-62
2022/04/11 09:53:21;;;;;;;2.60;2.40;;;18.60;94.90;;;;;;5106376;27;20653;-61
2022/04/11 09:55:51;;;;;;;3.30;2.50;;;18.40;94.20;;;;;;5099758;27;20203;-61
2022/04/11 09:58:21;;;;;;;2.47;2.37;;;18.00;94.30;;;;;;5103077;28;20191;-61
2022/04/11 10:00:51;;;;;;;2.40;2.17;;;18.10;93.70;;;;;;5100041;27;20194;-61
2022/04/11 10:03:24;;;;;;;2.33;2.13;;;18.30;93.00;;;;;;5102881;28;20206;-61
2022/04/11 10:05:58;;;;;;;5.03;2.40;;;18.70;93.10;;;;;;5101413;28;20211;-60
2022/04/11 10:08:28;;;;;;;2.60;2.40;;;19.40;93.30;;;;;;5116907;27;20342;-60
2022/04/11 10:10:57;;;;;;;2.67;2.47;;;19.50;92.50;;;;;;5106828;27;20195;-60
2022/04/11 10:13:25;;;;;;;3.43;2.50;;;19.80;93.40;;;;;;5102357;28;20205;-60
2022/04/11 10:15:54;;;;;;;2.73;2.50;;;19.80;92.20;;;;;;5099167;28;20195;-60
2022/04/11 10:18:26;;;;;;;2.40;2.30;;;19.70;92.00;;;;;;5101239;27;20207;-59
2022/04/11 10:20:58;;;;;;;2.83;2.30;;;19.50;91.00;;;;;;5104207;27;20202;-60
2022/04/11 10:23:56;;;;;;;3.20;2.93;;;19.40;91.30;;;;;;5102523;28;20470;-60
2022/04/11 10:26:30;;;;;;;7.67;3.23;;;18.70;91.90;;;;;;5105965;28;20293;-60
2022/04/11 10:29:00;;;;;;;4.10;3.03;;;18.60;92.40;;;;;;5105288;28;20301;-59
2022/04/11 10:31:36;;;;;;;2.80;2.47;;;18.80;91.30;;;;;;5115935;27;20198;-62
2022/04/11 10:34:06;;;;;;;2.97;2.70;;;18.80;91.40;;;;;;5104506;27;21718;-61
2022/04/11 10:36:57;;;;;;;2.90;2.60;;;19.30;91.00;;;;;;5103113;27;20198;-61
2022/04/11 10:39:27;;;;;;;4.40;2.80;;;19.30;90.60;;;;;;5105084;27;20251;-60
2022/04/11 10:42:24;;;;;;;4.87;2.87;;;19.60;90.50;;;;;;5095423;28;20233;-61
2022/04/11 10:44:54;;;;;;;5.33;2.50;;;19.10;90.30;;;;;;5092499;28;20315;-61
2022/04/11 10:47:31;;;;;;;5.37;2.50;;;19.20;90.70;;;;;;5102264;28;20208;-61
2022/04/11 10:50:24;;;;;;;2.87;2.67;;;19.30;90.00;;;;;;5102376;28;20216;-61
2022/04/11 10:52:55;;;;;;;5.50;2.93;;;19.60;90.40;;;;;;5100070;28;20198;-60
2022/04/11 10:55:25;;;;;;;2.47;2.37;;;19.70;91.10;;;;;;5101086;27;20205;-61
2022/04/11 10:57:56;;;;;;;2.60;2.40;;;20.60;90.50;;;;;;5097721;28;20218;-61
2022/04/11 11:00:25;;;;;;;3.13;2.83;;;20.10;87.50;;;;;;5102817;28;20287;-61
2022/04/11 11:03:14;;;;;;;2.33;2.03;;;19.50;90.40;;;;;;5098646;28;20283;-61
2022/04/11 11:05:47;;;;;;;2.90;2.27;;;19.90;90.40;;;;;;5095192;28;20551;-60
2022/04/11 11:08:34;;;;;;;5.30;3.00;;;20.40;90.00;;;;;;5096138;28;20249;-60
2022/04/11 11:11:23;;;;;;;6.17;2.80;;;20.40;90.30;;;;;;5104336;27;20289;-60
2022/04/11 11:13:52;;;;;;;2.60;2.40;;;20.70;88.70;;;;;;5102278;27;20190;-60
2022/04/11 11:16:28;;;;;;;2.57;2.37;;;20.90;90.80;;;;;;5101519;28;20190;-60
2022/04/11 11:19:18;;;;;;;2.17;2.07;;;20.70;88.60;;;;;;5098126;28;20188;-61
2022/04/11 11:22:05;;;;;;;3.93;2.73;;;20.60;88.40;;;;;;5098670;28;20603;-60
2022/04/11 11:24:34;;;;;;;3.83;2.67;;;20.20;87.90;;;;;;5101354;28;20191;-58
2022/04/11 11:27:05;;;;;;;5.87;2.87;;;19.30;88.90;;;;;;5101871;28;20219;-60
2022/04/11 11:29:41;;;;;;;3.47;2.67;;;18.90;89.20;;;;;;5114524;28;20261;-60
2022/04/11 11:32:12;;;;;;;2.90;2.70;;;18.80;88.30;;;;;;5094706;28;20182;-59
2022/04/11 11:34:43;;;;;;;2.77;2.37;;;18.70;89.00;;;;;;5108964;28;20224;-60
2022/04/11 11:37:14;;;;;;;2.97;2.67;;;19.00;92.00;;;;;;5102068;28;20248;-60
2022/04/11 11:39:44;;;;;;;3.00;2.80;;;19.20;88.80;;;;;;5107297;28;20198;-60
2022/04/11 11:42:14;;;;;;;3.77;2.60;;;19.70;89.60;;;;;;5109832;28;20246;-61
2022/04/11 11:44:46;;;;;;;3.33;2.53;;;20.00;88.70;;;;;;5107191;28;20616;-61
2022/04/11 11:47:15;;;;;;;3.87;3.03;;;20.10;88.30;;;;;;5110710;28;20350;-60
2022/04/11 11:49:46;;;;;;;4.33;3.00;;;20.00;86.40;;;;;;5106638;28;20221;-60
2022/04/11 11:52:17;;;;;;;3.83;2.37;;;19.70;89.20;;;;;;5109078;28;20198;-60
2022/04/11 11:54:48;;;;;;;4.57;3.10;;;19.50;89.20;;;;;;5109268;28;20569;-61
2022/04/11 11:57:18;;;;;;;3.50;2.80;;;19.40;89.00;;;;;;5100636;27;20274;-60
2022/04/11 11:59:48;;;;;;;3.03;2.83;;;19.70;87.50;;;;;;5107316;28;20569;-61
2022/04/11 12:05:03;;;;;;;2.93;2.77;;;19.80;90.00;;;;;;5108606;28;20681;-60
2022/04/11 12:07:36;;;;;;;4.00;3.30;;;19.30;90.30;;;;;;5105541;27;20219;-60
2022/04/11 12:10:07;;;;;;;3.53;3.10;;;19.00;88.20;;;;;;5112710;27;20623;-60
2022/04/11 12:12:41;;;;;;;4.97;3.23;;;19.20;91.00;;;;;;5106271;27;20223;-60
2022/04/11 12:15:10;;;;;;;3.67;3.37;;;18.90;90.80;;;;;;5106879;27;20686;-60
2022/04/11 12:17:40;;;;;;;3.87;3.40;;;19.00;90.60;;;;;;5054039;27;20198;-60
2022/04/11 12:20:14;;;;;;;3.20;3.00;;;19.30;91.40;;;;;;5102613;27;20680;-59
2022/04/11 12:23:03;;;;;;;3.87;2.70;;;19.60;89.60;;;;;;5108044;27;20201;-61
2022/04/11 12:25:33;;;;;;;5.07;2.87;;;19.60;89.20;;;;;;5107939;28;20689;-60
2022/04/11 12:28:16;;;;;;;3.63;3.10;;;19.10;89.30;;;;;;5104122;28;20214;-59
2022/04/11 12:30:46;;;;;;;3.30;2.80;;;18.80;89.80;;;;;;5097692;27;20567;-59
2022/04/11 12:33:32;;;;;;;3.07;2.97;;;18.80;90.70;;;;;;5105309;27;20576;-60
2022/04/11 12:36:08;;;;;;;3.20;3.00;;;18.80;90.20;;;;;;5106775;27;20284;-59
2022/04/11 12:38:48;;;;;;;7.23;2.73;;;18.60;90.60;;;;;;5103314;28;20633;-60
2022/04/11 12:41:44;;;;;;;3.27;3.00;;;18.70;92.10;;;;;;5105553;27;20670;-59
2022/04/11 12:44:14;;;;;;;3.97;3.23;;;18.60;90.80;;;;;;5069484;28;20283;-59
2022/04/11 12:46:44;;;;;;;2.90;2.77;;;18.20;90.50;;;;;;5120692;27;20213;-59
2022/04/11 12:49:14;;;;;;;3.30;2.70;;;18.20;92.00;;;;;;5102982;27;20199;-59
2022/04/11 12:51:44;;;;;;;2.83;2.63;;;18.30;91.40;;;;;;5114196;27;20217;-59
2022/04/11 12:54:16;;;;;;;2.97;2.77;;;18.50;90.80;;;;;;5102298;28;20203;-59
2022/04/11 12:56:46;;;;;;;4.50;3.00;;;18.30;91.00;;;;;;5097889;28;20198;-59
2022/04/11 12:59:28;;;;;;;2.83;2.67;;;18.20;91.90;;;;;;5101413;27;20195;-59
2022/04/11 13:02:04;;;;;;;3.00;2.80;;;18.30;91.50;;;;;;5105357;28;20568;-59
2022/04/11 13:04:32;;;;;;;3.07;2.87;;;18.20;91.60;;;;;;5111501;27;20344;-60